createdAt,value
2022-09-17T00:00:59.195Z,70.60
2022-09-17T00:05:02.281Z,70.70
2022-09-17T00:09:07.527Z,70.80
2022-09-17T00:13:11.609Z,71.20
2022-09-17T00:17:14.750Z,71.20
2022-09-17T00:21:19.496Z,71.30
2022-09-17T00:25:22.999Z,71.50
2022-09-17T00:29:25.956Z,71.20
2022-09-17T00:33:28.834Z,71.70
2022-09-17T00:37:31.957Z,71.80
2022-09-17T00:41:38.967Z,71.60
2022-09-17T00:45:42.276Z,71.80
2022-09-17T00:49:49.450Z,71.90
2022-09-17T00:53:59.061Z,72.40
2022-09-17T00:58:05.870Z,72.60
2022-09-17T01:02:09.276Z,72.50
2022-09-17T01:06:26.323Z,72.20
2022-09-17T01:10:38.359Z,72.50
2022-09-17T01:15:08.768Z,72.30
2022-09-17T01:19:32.908Z,72.30
2022-09-17T01:24:04.803Z,72.50
2022-09-17T01:28:45.404Z,72.00
2022-09-17T01:32:54.382Z,72.50
2022-09-17T01:37:15.237Z,73.30
2022-09-17T01:41:28.841Z,73.10
2022-09-17T01:45:57.310Z,73.50
2022-09-17T01:50:17.401Z,73.30
2022-09-17T01:54:29.071Z,73.70
2022-09-17T01:58:41.564Z,73.50
2022-09-17T02:03:08.756Z,74.00
2022-09-17T02:07:20.613Z,73.20
2022-09-17T02:11:24.025Z,74.10
2022-09-17T02:15:33.744Z,74.10
2022-09-17T02:19:40.310Z,74.20
2022-09-17T02:24:11.787Z,74.30
2022-09-17T02:28:37.369Z,73.70
2022-09-17T02:32:40.629Z,74.60
2022-09-17T02:36:46.486Z,74.40
2022-09-17T02:41:00.362Z,74.40
2022-09-17T02:45:10.780Z,74.50
2022-09-17T02:49:19.985Z,74.30
2022-09-17T02:53:45.208Z,74.40
2022-09-17T02:58:09.757Z,73.90
2022-09-17T03:02:28.255Z,74.40
2022-09-17T03:06:31.225Z,74.50
2022-09-17T03:10:34.226Z,74.70
2022-09-17T03:14:37.369Z,74.70
2022-09-17T03:18:40.725Z,74.70
2022-09-17T03:22:43.841Z,74.40
2022-09-17T03:26:49.581Z,74.50
2022-09-17T03:30:55.876Z,74.80
2022-09-17T03:34:59.054Z,74.80
2022-09-17T03:39:02.479Z,74.70
2022-09-17T03:43:06.500Z,74.90
2022-09-17T03:47:09.465Z,75.20
2022-09-17T03:51:12.747Z,75.40
2022-09-17T03:55:18.941Z,75.60
2022-09-17T03:59:27.337Z,75.70
2022-09-17T04:03:30.754Z,75.40
2022-09-17T04:07:33.741Z,75.50
2022-09-17T04:11:36.576Z,75.90
2022-09-17T04:15:40.036Z,75.90
2022-09-17T04:19:42.968Z,76.10
2022-09-17T04:23:45.798Z,76.00
2022-09-17T04:27:48.867Z,75.90
2022-09-17T04:31:51.744Z,76.00
2022-09-17T04:35:54.573Z,75.90
2022-09-17T04:40:02.150Z,76.00
2022-09-17T04:44:18.597Z,76.30
2022-09-17T04:49:16.031Z,76.40
2022-09-17T04:54:17.235Z,76.30
2022-09-17T04:58:54.593Z,76.00
2022-09-17T05:03:27.074Z,76.00
2022-09-17T05:08:03.421Z,76.10
2022-09-17T05:17:52.135Z,76.50
2022-09-17T05:22:19.522Z,76.90
2022-09-17T05:31:21.805Z,77.40
2022-09-17T05:35:28.132Z,77.10
2022-09-17T05:39:33.559Z,77.00
2022-09-17T05:43:45.172Z,77.20
2022-09-17T05:48:00.171Z,77.60
2022-09-17T05:52:03.955Z,77.40
2022-09-17T05:56:06.977Z,77.20
2022-09-17T06:00:11.984Z,77.20
2022-09-17T06:04:20.517Z,77.10
2022-09-17T06:08:46.959Z,77.30
2022-09-17T06:13:52.527Z,77.20
2022-09-17T06:18:14.661Z,77.00
2022-09-17T06:22:46.369Z,77.50
2022-09-17T06:27:10.725Z,77.40
2022-09-17T06:32:23.909Z,77.10
2022-09-17T06:36:35.887Z,77.00
2022-09-17T06:40:43.254Z,76.90
2022-09-17T06:45:47.914Z,76.90
2022-09-17T06:51:03.077Z,76.30
2022-09-17T07:00:54.378Z,76.30
2022-09-17T07:05:01.246Z,76.40
2022-09-17T07:09:12.236Z,76.90
2022-09-17T07:13:15.650Z,76.80
2022-09-17T07:17:21.415Z,76.40
2022-09-17T07:21:28.319Z,76.10
2022-09-17T07:25:49.431Z,76.20
2022-09-17T07:30:07.934Z,76.30
2022-09-17T07:34:12.850Z,76.20
2022-09-17T07:38:45.054Z,75.80
2022-09-17T07:52:19.649Z,74.90
2022-09-17T07:57:23.225Z,74.80
2022-09-17T08:07:13.856Z,74.80
2022-09-17T08:11:54.327Z,73.80
2022-09-17T08:15:59.228Z,73.50
2022-09-17T08:50:49.080Z,69.30
2022-09-17T09:00:46.110Z,66.90
2022-09-17T09:05:13.523Z,63.30
2022-09-17T09:09:21.244Z,61.70
2022-09-17T09:14:18.290Z,62.20
2022-09-17T09:18:30.839Z,62.90
2022-09-17T09:22:52.941Z,61.00
2022-09-17T09:27:04.084Z,60.00
2022-09-17T09:31:28.628Z,59.10
2022-09-17T09:35:34.612Z,56.70
2022-09-17T09:39:46.052Z,50.60
2022-09-17T09:44:23.063Z,50.40
2022-09-17T09:49:15.293Z,51.40
2022-09-17T09:54:08.162Z,53.80
2022-09-17T10:04:27.763Z,56.50
2022-09-17T10:14:07.979Z,62.00
2022-09-17T10:23:29.991Z,65.70
2022-09-17T10:35:02.620Z,68.60
2022-09-17T10:56:45.136Z,70.20
2022-09-17T11:01:20.421Z,70.30
2022-09-17T11:07:07.115Z,70.30
2022-09-17T11:12:28.905Z,69.90
2022-09-17T11:17:26.137Z,70.10
2022-09-17T11:22:24.512Z,71.00
2022-09-17T11:27:12.621Z,71.10
2022-09-17T14:01:57.462Z,59.10
2022-09-17T14:06:05.607Z,60.30
2022-09-17T14:10:15.050Z,60.60
2022-09-17T14:14:46.881Z,59.70
2022-09-17T14:19:16.908Z,58.90
2022-09-17T14:23:20.607Z,58.80
2022-09-17T14:28:00.731Z,57.80
2022-09-17T14:37:29.581Z,56.30
2022-09-17T15:10:49.444Z,54.10
2022-09-17T15:32:20.747Z,53.10
2022-09-17T15:36:38.127Z,53.10
2022-09-17T15:41:58.902Z,53.20
2022-09-17T18:20:35.014Z,59.10
2022-09-17T18:29:24.693Z,60.20
2022-09-17T18:33:30.703Z,60.30
2022-09-17T18:37:43.855Z,60.40
2022-09-17T18:42:42.614Z,60.80
2022-09-17T18:47:19.606Z,60.60
2022-09-17T18:51:33.198Z,60.50
2022-09-17T18:55:54.765Z,61.00
2022-09-17T19:00:15.882Z,61.20
2022-09-17T19:04:42.928Z,61.20
2022-09-17T19:14:01.698Z,61.30
2022-09-17T19:18:18.627Z,61.30
2022-09-17T19:22:42.100Z,61.30
2022-09-17T19:27:16.847Z,61.20
2022-09-17T19:31:31.817Z,61.30
2022-09-17T19:36:00.308Z,61.40
2022-09-17T19:40:27.902Z,61.40
2022-09-17T19:44:40.518Z,61.50
2022-09-17T19:48:56.211Z,61.50
2022-09-17T19:53:07.734Z,61.40
2022-09-17T19:57:14.708Z,61.40
2022-09-17T20:01:24.107Z,61.20
2022-09-17T20:05:27.668Z,61.20
2022-09-17T20:09:31.924Z,60.80
2022-09-17T20:13:37.662Z,61.20
2022-09-17T20:17:44.565Z,62.20
2022-09-17T20:22:07.104Z,62.60
2022-09-17T20:26:23.164Z,63.00
2022-09-17T20:30:26.819Z,63.60
2022-09-17T20:34:34.651Z,64.00
2022-09-17T20:43:04.505Z,65.00
2022-09-17T20:47:20.148Z,65.60
2022-09-17T20:51:40.509Z,66.00
2022-09-17T20:56:05.961Z,66.30
2022-09-17T21:00:21.520Z,66.50
2022-09-17T21:04:27.273Z,66.60
2022-09-17T21:08:43.679Z,66.90
2022-09-17T21:13:16.068Z,67.10
2022-09-17T21:17:36.660Z,67.20
2022-09-17T21:22:17.095Z,67.20
2022-09-17T21:26:49.402Z,67.50
2022-09-17T21:31:11.433Z,67.20
2022-09-17T21:35:42.538Z,67.40
2022-09-17T21:39:45.636Z,67.40
2022-09-17T21:44:01.581Z,66.90
2022-09-17T21:48:18.162Z,67.20
2022-09-17T21:52:21.105Z,67.20
2022-09-17T21:56:34.090Z,67.20
2022-09-17T22:00:43.194Z,67.40
2022-09-17T22:04:53.500Z,67.50
2022-09-17T22:08:59.085Z,67.70
2022-09-17T22:13:05.119Z,67.80
2022-09-17T22:17:07.954Z,68.00
2022-09-17T22:21:21.142Z,68.00
2022-09-17T22:25:24.079Z,68.60
2022-09-17T22:29:28.559Z,68.40
2022-09-17T22:33:36.463Z,68.60
2022-09-17T22:37:39.679Z,68.80
2022-09-17T22:41:45.873Z,69.40
2022-09-17T22:45:49.033Z,69.70
2022-09-17T22:49:54.521Z,70.50
2022-09-17T22:53:59.133Z,70.50
2022-09-17T22:58:01.989Z,70.60
2022-09-17T23:02:04.953Z,71.20
2022-09-17T23:06:10.836Z,71.50
2022-09-17T23:10:13.717Z,71.90
2022-09-17T23:14:17.262Z,71.60
2022-09-17T23:18:20.511Z,71.80
2022-09-17T23:22:23.535Z,71.80
2022-09-17T23:26:36.816Z,71.60
2022-09-17T23:30:39.699Z,71.90
2022-09-17T23:34:42.768Z,71.60
2022-09-17T23:38:47.427Z,71.60
2022-09-17T23:42:50.530Z,71.50
2022-09-17T23:46:53.538Z,71.60
2022-09-17T23:50:56.506Z,71.70
2022-09-17T23:54:59.447Z,71.80
2022-09-17T23:59:02.750Z,72.10
